Hargeisa, Somalia
Current Conditions -  °F | °C
As of 12:55 AM on Saturday 20 Dec 2014 (Local Time) from KQRH Reporting Station
Few Clouds Few Clouds  
Wind Chill: 76°   Ceiling: Unl
Heat Index: 76°   Visibility: 6mi
Dew Point: 64°   Wind: 2mph
Humidity: 66%   Direction: 160°SSE
Pressure: 30.1"   Gusts: NA
Location:  9.51°N, 44.08°E
Report Text: KQRH 192155Z AUTO 16002KT 9999 FEW050 24/18 A3010 RMK AO2 SLP190 T02430177 $
Loading
Personal Weather Stations






























Interactive Weather Map New forecast layout! Learn more

10-Day Weather Forecast

Advertisements
Track Severe Weather on mobile